Time;durP1;ratioP1;P1;durP2;ratioP2;P2;SDS_P1;SDS_P2;PMS_P1;PMS_P2;Temp;Humidity;BMP_temperature;BMP_pressure;BME280_temperature;BME280_humidity;BME280_pressure;Samples;Min_cycle;Max_cycle;Signal;HPM_P1;HPM_P2
2022/07/14 00:00:16;;;;;;;3.00;1.60;;;;;;;19.00;54.90;96780.08;108597;1264;25900;-79
2022/07/14 00:03:13;;;;;;;2.20;1.30;;;;;;;18.95;55.08;96779.02;108579;1264;22658;-79
2022/07/14 00:05:47;;;;;;;2.00;1.60;;;;;;;18.90;55.10;96780.27;108356;1264;103756;-79
2022/07/14 00:08:20;;;;;;;2.50;1.40;;;;;;;18.86;55.01;96779.13;108531;1264;22532;-79
2022/07/14 00:10:56;;;;;;;2.00;1.30;;;;;;;18.87;54.89;96776.02;108531;1264;22558;-79
2022/07/14 00:13:33;;;;;;;3.40;1.40;;;;;;;18.93;54.52;96782.89;108574;1264;22541;-78
2022/07/14 00:16:13;;;;;;;2.90;1.60;;;;;;;18.96;54.41;96782.35;108302;1264;101699;-79
2022/07/14 00:18:49;;;;;;;2.50;1.40;;;;;;;18.98;54.22;96782.17;108504;1264;22542;-78
2022/07/14 00:21:29;;;;;;;1.80;1.20;;;;;;;18.97;54.15;96779.30;108506;1264;24545;-78
2022/07/14 00:24:03;;;;;;;1.60;1.40;;;;;;;18.98;54.02;96778.16;108483;1264;25462;-78
2022/07/14 00:26:34;;;;;;;3.00;1.40;;;;;;;19.01;53.95;96779.73;108349;1262;110608;-78
2022/07/14 00:29:17;;;;;;;4.10;1.70;;;;;;;19.02;53.98;96778.09;108579;1264;22608;-78
2022/07/14 00:31:53;;;;;;;1.80;1.30;;;;;;;19.02;53.93;96777.48;108579;1264;24225;-78
2022/07/14 00:34:24;;;;;;;2.60;1.50;;;;;;;19.07;53.60;96772.29;108601;1264;22545;-78
2022/07/14 00:37:01;;;;;;;2.20;1.40;;;;;;;19.16;53.44;96778.98;108352;1264;117481;-78
2022/07/14 00:39:58;;;;;;;2.60;1.50;;;;;;;19.22;53.06;96777.03;108586;1263;22623;-78
2022/07/14 00:42:51;;;;;;;3.30;1.30;;;;;;;19.33;52.87;96774.70;108612;1264;22853;-78
2022/07/14 00:45:27;;;;;;;2.30;1.70;;;;;;;19.35;52.52;96772.98;108371;1264;121372;-78
2022/07/14 00:48:06;;;;;;;2.70;1.40;;;;;;;19.41;52.27;96775.02;108602;1264;25960;-78
2022/07/14 00:50:43;;;;;;;2.90;1.30;;;;;;;19.45;52.02;96773.57;108562;1264;25258;-78
2022/07/14 00:53:20;;;;;;;1.70;1.10;;;;;;;19.44;52.06;96771.77;108523;1264;22548;-78
2022/07/14 00:55:56;;;;;;;2.40;1.50;;;;;;;19.40;51.95;96770.76;106720;1264;2243728;-78
2022/07/14 00:58:32;;;;;;;1.90;1.30;;;;;;;19.39;52.17;96770.11;108475;1264;23969;-78
2022/07/14 01:01:11;;;;;;;1.90;1.30;;;;;;;19.31;52.37;96773.92;108436;1264;22538;-78
2022/07/14 01:03:47;;;;;;;2.30;1.50;;;;;;;19.25;52.30;96770.23;108482;1264;22582;-78
2022/07/14 01:06:24;;;;;;;1.70;1.40;;;;;;;19.20;52.49;96766.61;108351;1264;110711;-78
2022/07/14 01:08:59;;;;;;;2.90;1.50;;;;;;;19.14;52.89;96764.46;108583;1264;22534;-78
2022/07/14 01:11:35;;;;;;;1.80;1.20;;;;;;;19.04;52.83;96756.27;108597;1264;24256;-78
2022/07/14 01:14:09;;;;;;;3.50;1.50;;;;;;;19.07;52.86;96764.92;108596;1264;22608;-78
2022/07/14 01:16:44;;;;;;;1.30;0.90;;;;;;;19.05;52.89;96763.84;108386;1264;87661;-78
2022/07/14 01:19:20;;;;;;;1.90;1.40;;;;;;;18.99;52.99;96762.10;108581;1263;22536;-78
2022/07/14 01:22:08;;;;;;;1.40;1.10;;;;;;;18.91;53.14;96764.73;108546;1264;26427;-78
2022/07/14 01:24:41;;;;;;;2.90;1.40;;;;;;;18.81;53.38;96759.73;108316;1264;22564;-78
2022/07/14 01:27:19;;;;;;;2.50;1.50;;;;;;;18.75;53.42;96758.38;108309;1264;104277;-78
2022/07/14 01:29:54;;;;;;;2.40;1.40;;;;;;;18.72;53.74;96754.69;108632;1264;23840;-78
2022/07/14 01:32:28;;;;;;;2.20;1.30;;;;;;;18.65;53.94;96748.48;108478;1264;22526;-78
2022/07/14 01:35:00;;;;;;;1.50;1.20;;;;;;;18.62;53.95;96743.52;108581;1264;22744;-78
2022/07/14 01:37:36;;;;;;;2.20;1.40;;;;;;;18.65;54.07;96739.33;105397;1264;4001775;-78
2022/07/14 01:40:11;;;;;;;2.60;1.20;;;;;;;18.70;54.02;96750.02;108588;1264;22683;-78
2022/07/14 01:42:45;;;;;;;1.80;1.30;;;;;;;18.64;54.22;96752.59;108529;1264;22634;-78
2022/07/14 01:45:17;;;;;;;1.80;1.30;;;;;;;18.60;54.20;96746.52;108298;1261;97069;-78
2022/07/14 01:47:51;;;;;;;1.40;1.10;;;;;;;18.64;54.05;96746.11;108503;1264;22564;-78
2022/07/14 01:50:24;;;;;;;3.10;1.40;;;;;;;18.75;54.02;96745.55;108522;1264;22536;-78
2022/07/14 01:53:04;;;;;;;2.20;1.40;;;;;;;18.73;54.12;96743.48;108527;1264;22618;-78
2022/07/14 01:55:38;;;;;;;4.30;1.50;;;;;;;18.69;53.89;96744.63;107151;1263;1638650;-78
2022/07/14 01:58:14;;;;;;;1.80;1.30;;;;;;;18.76;53.84;96746.80;108528;1264;22526;-78
2022/07/14 02:01:39;;;;;;;1.70;1.30;;;;;;;18.77;53.89;96744.33;108503;1264;24297;-78
2022/07/14 02:03:46;;;;;;;2.80;1.40;;;;;;;18.77;53.83;96747.62;108510;1264;22543;-78
2022/07/14 02:06:19;;;;;;;3.30;1.20;;;;;;;18.80;53.72;96743.42;108201;1264;98329;-78
2022/07/14 02:09:04;;;;;;;1.70;1.00;;;;;;;18.83;53.78;96742.85;108525;1263;22561;-77
2022/07/14 02:14:31;;;;;;;2.60;1.40;;;;;;;18.91;53.58;96736.92;108467;1264;23354;-78
2022/07/14 02:17:05;;;;;;;2.40;1.40;;;;;;;18.93;53.53;96732.31;108181;1264;149692;-78
2022/07/14 02:19:39;;;;;;;2.80;1.30;;;;;;;18.98;53.47;96728.19;108586;1264;22666;-78
2022/07/14 02:22:13;;;;;;;3.40;1.40;;;;;;;19.02;53.26;96724.58;108550;1264;24017;-78
2022/07/14 02:24:45;;;;;;;2.50;1.00;;;;;;;19.05;53.30;96722.77;108531;1264;22548;-78
2022/07/14 02:27:19;;;;;;;2.80;1.40;;;;;;;19.05;53.33;96726.54;108377;1264;101334;-78
2022/07/14 02:29:53;;;;;;;1.80;1.30;;;;;;;19.03;53.33;96725.45;108560;1264;24227;-78
2022/07/14 02:32:30;;;;;;;2.30;1.20;;;;;;;19.04;53.34;96726.95;108550;1264;22517;-78
2022/07/14 02:35:08;;;;;;;2.80;1.30;;;;;;;19.02;53.30;96727.13;108540;1264;22558;-78
2022/07/14 02:37:42;;;;;;;1.40;1.20;;;;;;;19.06;53.19;96722.73;108601;1264;22564;-78
2022/07/14 02:40:15;;;;;;;3.40;1.30;;;;;;;19.06;53.37;96729.02;108528;1264;22561;-78
2022/07/14 02:42:55;;;;;;;3.80;1.10;;;;;;;19.00;53.58;96730.59;108554;1264;24221;-78
2022/07/14 02:45:33;;;;;;;1.60;1.30;;;;;;;18.94;53.63;96730.15;108348;1264;75530;-78
2022/07/14 02:48:11;;;;;;;1.40;1.20;;;;;;;18.94;53.67;96731.14;108267;1265;24590;-78
2022/07/14 02:50:42;;;;;;;1.60;1.40;;;;;;;18.99;53.59;96734.67;108542;1264;22554;-78
2022/07/14 02:53:20;;;;;;;2.60;1.40;;;;;;;19.01;53.51;96726.45;108478;1264;22549;-78
2022/07/14 02:55:56;;;;;;;3.40;1.40;;;;;;;19.01;53.49;96727.08;108170;1264;102186;-78
2022/07/14 02:58:37;;;;;;;1.10;1.00;;;;;;;19.07;53.38;96731.58;108476;1264;22700;-78
2022/07/14 03:01:11;;;;;;;1.50;1.20;;;;;;;19.09;53.28;96728.98;108483;1264;22662;-78
2022/07/14 03:03:52;;;;;;;1.90;1.00;;;;;;;19.09;53.45;96730.73;108536;1264;22719;-78
2022/07/14 03:06:24;;;;;;;2.30;1.20;;;;;;;19.03;53.32;96729.23;107050;1264;1806867;-78
2022/07/14 03:09:07;;;;;;;1.30;1.20;;;;;;;19.06;53.33;96730.86;108475;1264;22548;-78
2022/07/14 03:11:44;;;;;;;1.40;1.30;;;;;;;19.07;53.13;96727.61;108483;1264;22534;-78
2022/07/14 03:14:15;;;;;;;2.90;1.30;;;;;;;19.11;53.15;96727.67;108488;1264;22675;-78
2022/07/14 03:16:50;;;;;;;1.50;1.10;;;;;;;19.13;53.02;96726.41;108306;1264;102657;-78
2022/07/14 03:19:28;;;;;;;1.70;0.90;;;;;;;19.15;53.17;96727.96;108534;1264;22520;-78
2022/07/14 03:22:07;;;;;;;1.50;1.30;;;;;;;19.13;53.23;96729.19;108539;1263;22757;-78
2022/07/14 03:24:38;;;;;;;2.00;1.20;;;;;;;19.13;52.99;96728.95;108536;1264;25239;-78
2022/07/14 03:27:22;;;;;;;1.20;1.10;;;;;;;19.15;52.96;96731.29;108386;1264;102438;-78
2022/07/14 03:29:53;;;;;;;2.00;1.10;;;;;;;19.14;53.05;96734.60;108601;1264;23580;-78
2022/07/14 03:32:35;;;;;;;2.00;1.20;;;;;;;19.14;53.13;96737.30;108565;1264;22656;-78
2022/07/14 03:35:10;;;;;;;1.60;1.20;;;;;;;19.13;53.09;96738.23;108617;1264;25292;-78
2022/07/14 03:37:50;;;;;;;1.80;1.10;;;;;;;19.15;53.22;96736.47;108532;1264;22548;-78
2022/07/14 03:40:24;;;;;;;3.10;1.40;;;;;;;19.13;53.12;96732.23;108562;1264;22536;-78
2022/07/14 03:42:55;;;;;;;2.00;1.50;;;;;;;19.14;53.12;96727.79;108527;1264;22552;-78
2022/07/14 03:45:31;;;;;;;2.10;1.50;;;;;;;19.17;53.27;96728.58;108315;1264;159816;-78
2022/07/14 03:48:07;;;;;;;3.40;1.40;;;;;;;19.16;53.18;96731.75;108583;1264;22946;-78
2022/07/14 03:50:55;;;;;;;1.60;1.20;;;;;;;19.16;53.12;96728.84;108564;1264;22514;-77
2022/07/14 03:53:32;;;;;;;4.10;1.90;;;;;;;19.18;53.09;96734.38;108529;1264;22542;-78
2022/07/14 03:56:07;;;;;;;2.30;1.80;;;;;;;19.22;53.43;96734.65;106817;1264;2235137;-78
2022/07/14 03:58:44;;;;;;;4.80;2.90;;;;;;;19.18;53.50;96733.37;108577;1264;22535;-78
2022/07/14 04:01:18;;;;;;;13.00;7.40;;;;;;;19.14;53.88;96732.23;108554;1264;22609;-78
2022/07/14 04:03:55;;;;;;;12.20;5.90;;;;;;;19.11;54.24;96732.95;108565;1264;22736;-78
2022/07/14 04:06:30;;;;;;;2.00;1.30;;;;;;;19.12;53.99;96732.66;108233;1264;188787;-78
2022/07/14 04:09:02;;;;;;;13.40;8.50;;;;;;;19.14;54.36;96730.61;108557;1264;22636;-78
2022/07/14 04:11:47;;;;;;;9.90;8.10;;;;;;;19.11;54.91;96729.80;108623;1264;23780;-78
2022/07/14 04:14:21;;;;;;;6.40;2.70;;;;;;;19.05;54.93;96727.90;108551;1264;24391;-78
2022/07/14 04:16:55;;;;;;;2.80;2.10;;;;;;;19.03;55.39;96733.04;108355;1263;105886;-78
2022/07/14 04:19:26;;;;;;;4.00;1.70;;;;;;;18.96;55.63;96733.58;108558;1264;24249;-78
2022/07/14 04:22:00;;;;;;;2.30;1.70;;;;;;;18.96;55.79;96737.41;108526;1264;22520;-78
2022/07/14 04:24:37;;;;;;;2.20;1.10;;;;;;;18.96;55.77;96734.59;108593;1262;22529;-78
2022/07/14 04:27:13;;;;;;;3.10;1.50;;;;;;;19.00;55.07;96735.41;108395;1264;83833;-78
2022/07/14 04:29:49;;;;;;;3.90;1.20;;;;;;;19.06;54.75;96733.77;108589;1264;25416;-78
2022/07/14 04:32:26;;;;;;;2.10;1.40;;;;;;;19.11;54.58;96733.65;108583;1264;22643;-78
2022/07/14 04:35:01;;;;;;;3.00;1.30;;;;;;;19.12;54.49;96735.30;108514;1264;22637;-78
2022/07/14 04:37:34;;;;;;;1.90;1.20;;;;;;;19.11;54.42;96735.73;108577;1264;22599;-78
2022/07/14 04:40:18;;;;;;;2.70;1.50;;;;;;;19.12;54.57;96739.83;108557;1263;25484;-78
2022/07/14 04:42:53;;;;;;;2.40;1.20;;;;;;;19.11;55.18;96743.16;108547;1264;23080;-78
2022/07/14 04:45:25;;;;;;;1.30;1.10;;;;;;;19.10;55.61;96744.19;108272;1264;138279;-78
2022/07/14 04:48:00;;;;;;;1.70;1.30;;;;;;;19.05;55.30;96748.41;108496;1264;24384;-78
2022/07/14 04:53:31;;;;;;;3.30;1.50;;;;;;;18.90;55.64;96733.36;108514;1264;24131;-78
2022/07/14 04:56:03;;;;;;;3.20;1.30;;;;;;;18.83;55.86;96735.08;108402;1264;81765;-78
2022/07/14 04:58:37;;;;;;;2.30;1.70;;;;;;;18.76;57.25;96730.91;108592;1264;22545;-78
2022/07/14 05:01:17;;;;;;;2.20;1.60;;;;;;;18.69;57.89;96724.15;108598;1261;24329;-78
2022/07/14 05:03:54;;;;;;;2.00;1.60;;;;;;;18.72;57.66;96728.41;108593;1264;25283;-78
2022/07/14 05:06:38;;;;;;;2.70;1.40;;;;;;;18.77;57.39;96731.59;108301;1263;89823;-78
2022/07/14 05:09:12;;;;;;;2.40;1.40;;;;;;;18.82;57.30;96731.38;108530;1264;26467;-78
2022/07/14 05:11:49;;;;;;;2.70;1.30;;;;;;;18.85;57.23;96730.73;108574;1264;23406;-78
2022/07/14 05:14:21;;;;;;;2.00;1.20;;;;;;;18.91;56.92;96727.12;108572;1263;25347;-78
2022/07/14 05:17:03;;;;;;;1.30;1.20;;;;;;;19.02;56.78;96722.06;108396;1264;69869;-78
2022/07/14 05:19:40;;;;;;;1.80;1.20;;;;;;;19.13;56.62;96717.73;108573;1264;22982;-78
2022/07/14 05:22:14;;;;;;;1.70;1.30;;;;;;;19.34;56.23;96715.17;108570;1264;26847;-78
2022/07/14 05:24:48;;;;;;;1.80;1.10;;;;;;;20.13;55.44;96714.48;108558;1264;23246;-78
2022/07/14 05:27:31;;;;;;;2.70;1.40;;;;;;;20.85;53.90;96718.46;108309;1264;114642;-78
2022/07/14 05:30:05;;;;;;;1.70;1.00;;;;;;;20.81;53.36;96717.11;108556;1264;23060;-79
2022/07/14 05:32:42;;;;;;;2.20;0.90;;;;;;;20.58;53.17;96712.98;108604;1264;24045;-79
2022/07/14 05:35:13;;;;;;;1.10;1.00;;;;;;;20.44;53.12;96712.02;108357;1264;98840;-78
2022/07/14 05:37:55;;;;;;;1.30;1.20;;;;;;;20.52;52.99;96709.58;108295;1265;23851;-78
2022/07/14 05:40:27;;;;;;;3.60;1.10;;;;;;;20.68;52.86;96709.27;108498;1265;22596;-79
2022/07/14 05:43:11;;;;;;;1.90;1.00;;;;;;;21.27;52.98;96706.80;108531;1264;22554;-79
2022/07/14 05:45:44;;;;;;;1.50;1.10;;;;;;;22.86;50.51;96697.90;108319;1264;82719;-79
2022/07/14 05:48:21;;;;;;;1.60;1.30;;;;;;;23.25;49.56;96692.81;108519;1264;25296;-79
2022/07/14 05:50:53;;;;;;;1.40;1.30;;;;;;;23.14;48.74;96686.12;108473;1264;25152;-79
2022/07/14 05:53:28;;;;;;;3.70;1.50;;;;;;;22.87;48.77;96694.73;108514;1264;22583;-80
2022/07/14 05:56:10;;;;;;;2.30;1.10;;;;;;;24.42;47.81;96700.54;108213;1264;152148;-80
2022/07/14 05:58:43;;;;;;;1.30;1.20;;;;;;;25.32;45.13;96706.94;108760;1264;22526;-80
2022/07/14 06:01:21;;;;;;;1.80;1.20;;;;;;;24.69;44.57;96700.81;108816;1264;24260;-80
2022/07/14 06:03:57;;;;;;;2.50;1.20;;;;;;;24.02;44.64;96706.45;108828;1264;23522;-80
2022/07/14 06:06:36;;;;;;;3.10;1.40;;;;;;;23.57;45.85;96708.25;108547;1264;134828;-80
2022/07/14 06:09:12;;;;;;;2.10;1.40;;;;;;;23.60;46.43;96700.73;108771;1264;24822;-80
2022/07/14 06:11:50;;;;;;;1.10;1.00;;;;;;;24.32;47.30;96698.72;108776;1264;24993;-80
2022/07/14 06:14:22;;;;;;;1.90;1.00;;;;;;;25.54;46.96;96704.02;108778;1265;23893;-80
2022/07/14 06:17:06;;;;;;;1.70;0.90;;;;;;;27.62;46.24;96701.45;104511;1264;5404141;-80
2022/07/14 06:19:42;;;;;;;2.20;1.00;;;;;;;30.35;43.75;96701.79;108803;1265;25826;-80
2022/07/14 06:22:18;;;;;;;3.00;1.00;;;;;;;32.58;38.95;96701.42;108840;1263;22627;-80
2022/07/14 06:24:50;;;;;;;1.30;1.00;;;;;;;33.86;34.74;96699.13;108841;1264;26494;-81
2022/07/14 06:27:31;;;;;;;1.70;0.60;;;;;;;34.09;33.20;96702.10;106863;1265;2402410;-81
2022/07/14 06:30:08;;;;;;;1.20;0.80;;;;;;;34.35;31.16;96708.64;108806;1263;22673;-81
2022/07/14 06:32:41;;;;;;;0.70;0.70;;;;;;;33.06;31.30;96706.23;108808;1264;25334;-81
2022/07/14 06:35:26;;;;;;;3.10;0.90;;;;;;;31.21;31.72;96706.75;108579;1265;126968;-81
2022/07/14 06:38:09;;;;;;;2.00;0.80;;;;;;;29.86;33.31;96710.55;108774;1265;22584;-81
2022/07/14 06:40:46;;;;;;;2.50;1.00;;;;;;;30.05;32.80;96705.08;108843;1265;22733;-81
2022/07/14 06:43:17;;;;;;;1.70;0.80;;;;;;;29.43;33.66;96709.24;108821;1265;22574;-81
2022/07/14 06:45:54;;;;;;;0.90;0.60;;;;;;;28.44;34.03;96704.64;108584;1265;105898;-80
2022/07/14 06:48:31;;;;;;;2.00;0.90;;;;;;;27.93;35.34;96702.03;108748;1264;22657;-80
2022/07/14 06:51:06;;;;;;;2.20;1.10;;;;;;;28.24;35.20;96704.73;108824;1263;23846;-81
2022/07/14 06:53:51;;;;;;;1.60;1.00;;;;;;;27.93;35.55;96697.81;108792;1265;23309;-81
2022/07/14 06:56:31;;;;;;;2.00;0.80;;;;;;;27.68;36.37;96696.95;108606;1264;93477;-80
2022/07/14 06:59:08;;;;;;;2.00;1.10;;;;;;;27.76;36.45;96696.87;108732;1264;22552;-81
2022/07/14 07:01:48;;;;;;;2.40;1.10;;;;;;;29.30;35.49;96694.98;108774;1265;22542;-81
2022/07/14 07:07:10;;;;;;;1.70;0.90;;;;;;;32.97;31.79;96695.27;108541;1265;147666;-81
2022/07/14 07:09:46;;;;;;;1.70;1.10;;;;;;;34.38;30.19;96689.33;108795;1264;24162;-81
2022/07/14 07:12:25;;;;;;;1.80;1.00;;;;;;;35.46;28.35;96692.97;108838;1261;22558;-81
2022/07/14 07:15:11;;;;;;;1.90;0.90;;;;;;;36.57;27.96;96691.21;108795;1264;22577;-81
2022/07/14 07:17:48;;;;;;;0.90;0.60;;;;;;;36.93;26.04;96688.27;108790;1265;22675;-81
2022/07/14 07:20:24;;;;;;;2.30;0.80;;;;;;;37.05;26.24;96687.95;108815;1265;22534;-81
2022/07/14 07:23:05;;;;;;;1.50;1.10;;;;;;;37.87;26.08;96690.83;108786;1264;22763;-82
2022/07/14 07:25:40;;;;;;;1.40;0.70;;;;;;;37.92;24.93;96692.05;108600;1265;160165;-81
2022/07/14 07:28:24;;;;;;;1.10;0.90;;;;;;;38.10;25.56;96689.08;108735;1264;22746;-81
2022/07/14 07:31:00;;;;;;;0.80;0.80;;;;;;;38.89;25.40;96692.09;108818;1264;24233;-82
2022/07/14 07:33:34;;;;;;;1.00;0.90;;;;;;;39.24;24.07;96695.35;108792;1265;25940;-82
2022/07/14 07:36:13;;;;;;;1.00;0.80;;;;;;;38.42;23.54;96689.67;107211;1265;1828072;-81
2022/07/14 07:38:59;;;;;;;1.00;0.70;;;;;;;37.79;24.22;96691.19;108809;1264;22580;-81
2022/07/14 07:41:36;;;;;;;1.30;1.00;;;;;;;38.27;24.77;96690.71;108812;1265;22722;-81
2022/07/14 07:44:13;;;;;;;0.90;0.80;;;;;;;38.20;23.88;96686.39;108832;1265;22555;-81
2022/07/14 07:46:48;;;;;;;1.90;0.90;;;;;;;37.74;23.65;96685.80;108522;1265;112702;-81
2022/07/14 07:49:24;;;;;;;2.60;0.90;;;;;;;37.22;24.33;96687.63;108741;1264;23404;-80
2022/07/14 07:52:10;;;;;;;1.70;1.10;;;;;;;37.44;24.58;96689.97;108720;1265;22563;-81
2022/07/14 07:54:47;;;;;;;2.10;1.10;;;;;;;36.92;24.19;96685.64;108708;1265;22551;-81
2022/07/14 07:57:27;;;;;;;1.30;1.10;;;;;;;36.60;25.03;96686.36;108566;1265;98556;-81
2022/07/14 08:00:17;;;;;;;1.40;0.90;;;;;;;36.86;24.50;96683.24;108732;1265;22555;-81
2022/07/14 08:02:50;;;;;;;1.30;1.00;;;;;;;36.92;25.04;96680.84;108674;1265;22566;-81
2022/07/14 08:05:33;;;;;;;3.00;0.90;;;;;;;36.89;24.26;96680.61;108456;1265;110904;-80
2022/07/14 08:08:16;;;;;;;2.00;1.30;;;;;;;37.53;24.86;96678.48;108736;1265;22563;-81
2022/07/14 08:10:55;;;;;;;1.40;0.90;;;;;;;37.66;24.01;96682.38;108765;1265;22521;-81
2022/07/14 08:13:29;;;;;;;1.10;0.90;;;;;;;37.27;23.55;96680.25;108752;1265;24979;-81
2022/07/14 08:16:01;;;;;;;1.30;1.20;;;;;;;36.67;24.03;96683.11;104522;1264;5297541;-81
2022/07/14 08:18:52;;;;;;;1.80;1.10;;;;;;;36.21;24.75;96680.13;108793;1265;22555;-80
2022/07/14 08:21:30;;;;;;;1.30;1.10;;;;;;;36.18;25.03;96680.55;108529;1265;24275;-80
2022/07/14 08:24:05;;;;;;;2.30;1.00;;;;;;;36.83;24.94;96677.82;108808;1265;22534;-80
2022/07/14 08:26:42;;;;;;;1.70;1.10;;;;;;;36.69;24.46;96675.16;108563;1264;90704;-80
2022/07/14 08:29:14;;;;;;;3.50;1.30;;;;;;;37.05;24.77;96676.55;108773;1264;22717;-80
2022/07/14 08:31:48;;;;;;;1.30;1.00;;;;;;;36.96;23.84;96674.10;108770;1265;23842;-80
2022/07/14 08:37:13;;;;;;;1.10;1.00;;;;;;;34.50;26.37;96679.23;108580;1265;126444;-80
2022/07/14 08:39:47;;;;;;;1.70;0.90;;;;;;;35.33;26.07;96676.41;108837;1265;22551;-80
2022/07/14 08:42:24;;;;;;;3.90;1.40;;;;;;;36.62;25.37;96676.05;108833;1264;23865;-81
2022/07/14 08:45:08;;;;;;;1.40;1.30;;;;;;;37.07;24.22;96672.80;108828;1265;22630;-80
2022/07/14 08:47:46;;;;;;;3.00;1.20;;;;;;;36.27;23.71;96672.64;108822;1265;22631;-80
2022/07/14 08:50:19;;;;;;;1.70;1.00;;;;;;;35.26;25.10;96679.69;108826;1264;22538;-80
2022/07/14 08:52:54;;;;;;;2.90;1.20;;;;;;;35.56;25.28;96673.67;108803;1264;22740;-80
2022/07/14 08:55:38;;;;;;;1.30;1.20;;;;;;;36.02;24.89;96670.25;108615;1264;107974;-80
2022/07/14 08:58:09;;;;;;;3.40;1.60;;;;;;;35.71;24.47;96662.64;108837;1264;22712;-80
2022/07/14 09:00:46;;;;;;;2.90;1.10;;;;;;;35.15;25.08;96666.33;108816;1264;22535;-80
2022/07/14 09:03:22;;;;;;;1.00;0.90;;;;;;;34.56;26.13;96669.52;108838;1262;25352;-81
2022/07/14 09:06:10;;;;;;;1.20;1.10;;;;;;;32.58;27.53;96661.92;104495;1262;5380132;-80
2022/07/14 09:08:58;;;;;;;1.90;1.20;;;;;;;30.58;29.98;96667.08;108832;1264;22571;-80
2022/07/14 09:11:38;;;;;;;2.70;1.40;;;;;;;29.63;32.30;96672.52;108880;1263;22669;-79
2022/07/14 09:14:17;;;;;;;2.20;1.20;;;;;;;29.28;32.85;96665.07;108832;1264;22565;-79
2022/07/14 09:17:21;;;;;;;4.60;1.60;;;;;;;29.01;34.16;96658.66;106347;1264;3129605;-80
2022/07/14 09:20:17;;;;;;;1.90;1.20;;;;;;;28.79;34.26;96661.55;108838;1264;26415;-80
2022/07/14 09:22:49;;;;;;;2.10;1.20;;;;;;;28.40;35.14;96665.48;108755;1264;24747;-79
2022/07/14 09:25:23;;;;;;;2.40;1.40;;;;;;;28.24;35.74;96661.98;107125;1264;2112309;-79
2022/07/14 09:27:58;;;;;;;2.60;1.50;;;;;;;28.54;35.77;96657.10;108838;1265;22563;-79
2022/07/14 09:30:37;;;;;;;1.70;1.50;;;;;;;28.60;35.36;96660.98;108684;1264;24093;-79
2022/07/14 09:33:30;;;;;;;2.00;1.40;;;;;;;28.59;35.28;96653.73;108541;1264;22549;-79
2022/07/14 09:36:01;;;;;;;2.60;1.30;;;;;;;28.55;35.07;96652.34;108360;1264;98082;-80
2022/07/14 09:38:45;;;;;;;1.80;1.30;;;;;;;28.48;35.64;96649.41;108497;1264;22612;-79
2022/07/14 09:41:20;;;;;;;2.40;1.40;;;;;;;28.39;35.84;96650.98;108505;1264;22577;-80
2022/07/14 09:44:17;;;;;;;1.90;1.50;;;;;;;28.18;35.86;96646.40;108524;1265;26535;-79
2022/07/14 09:46:56;;;;;;;2.30;1.60;;;;;;;28.11;36.21;96639.63;108392;1264;78958;-79
2022/07/14 09:49:43;;;;;;;2.70;1.50;;;;;;;27.92;35.98;96641.06;108585;1264;25245;-79
2022/07/14 09:52:17;;;;;;;1.60;1.40;;;;;;;27.81;36.71;96644.25;108571;1264;24624;-79
2022/07/14 09:54:52;;;;;;;3.90;1.50;;;;;;;27.69;37.01;96641.69;108540;1261;25124;-79
2022/07/14 09:57:29;;;;;;;2.30;1.50;;;;;;;27.88;37.17;96639.42;108413;1264;77724;-79
2022/07/14 10:00:18;;;;;;;2.10;1.60;;;;;;;27.94;37.39;96642.92;108611;1264;22553;-79
2022/07/14 10:02:52;;;;;;;3.70;1.50;;;;;;;27.92;37.40;96631.96;108530;1264;23885;-78
2022/07/14 10:05:29;;;;;;;1.50;1.40;;;;;;;28.03;37.60;96633.80;108370;1264;90580;-78
2022/07/14 10:08:05;;;;;;;2.40;1.60;;;;;;;28.14;37.12;96633.08;108638;1264;22529;-79
2022/07/14 10:10:40;;;;;;;3.10;1.80;;;;;;;28.12;37.40;96640.41;108619;1264;22586;-78
2022/07/14 10:16:04;;;;;;;1.70;1.40;;;;;;;28.17;37.41;96639.86;106041;1264;3062119;-79
2022/07/14 10:18:42;;;;;;;2.10;1.80;;;;;;;28.03;37.59;96642.85;108491;1264;22558;-79
2022/07/14 10:21:19;;;;;;;2.20;1.50;;;;;;;27.95;37.56;96635.60;108486;1264;22543;-78
2022/07/14 10:23:50;;;;;;;2.10;1.80;;;;;;;28.07;37.67;96631.46;108514;1264;22565;-78
2022/07/14 10:26:31;;;;;;;3.50;1.90;;;;;;;28.40;38.42;96629.78;108361;1263;85650;-78
2022/07/14 10:29:10;;;;;;;2.60;1.40;;;;;;;28.88;37.68;96632.89;108240;1264;22720;-78
2022/07/14 10:31:55;;;;;;;2.50;1.60;;;;;;;28.78;35.15;96633.64;108568;1263;22530;-80
2022/07/14 10:34:43;;;;;;;2.10;1.70;;;;;;;28.02;36.33;96640.34;108547;1264;22593;-79
2022/07/14 10:37:28;;;;;;;1.90;1.70;;;;;;;27.64;36.73;96631.09;108328;1264;93716;-78
2022/07/14 10:40:19;;;;;;;2.30;1.70;;;;;;;27.71;37.11;96630.31;108483;1264;22537;-79
2022/07/14 10:43:03;;;;;;;4.70;1.40;;;;;;;27.72;37.21;96625.89;108522;1264;22998;-78
2022/07/14 10:45:35;;;;;;;3.90;1.70;;;;;;;27.90;37.08;96627.52;108277;1264;106684;-79
2022/07/14 10:48:30;;;;;;;2.30;1.30;;;;;;;28.04;37.74;96631.39;108494;1264;24253;-79
2022/07/14 10:51:33;;;;;;;3.30;1.90;;;;;;;28.28;37.88;96626.46;108479;1264;22679;-79
2022/07/14 10:54:19;;;;;;;3.50;1.90;;;;;;;28.20;36.55;96624.75;108481;1264;25366;-79
2022/07/14 10:57:08;;;;;;;3.60;1.70;;;;;;;28.12;36.19;96624.13;108365;1264;82521;-79
2022/07/14 10:59:43;;;;;;;2.10;1.80;;;;;;;28.15;37.16;96626.23;108199;1263;489543;-79
2022/07/14 11:02:41;;;;;;;2.50;1.40;;;;;;;28.27;36.96;96621.70;108801;1264;22535;-79
2022/07/14 11:05:19;;;;;;;2.70;1.80;;;;;;;28.31;37.05;96621.48;108404;1264;102639;-79
2022/07/14 11:08:11;;;;;;;;;;;;;;;28.09;37.45;96621.57;108539;1264;22533;-79
2022/07/14 11:11:20;;;;;;;1.90;1.70;;;;;;;27.79;37.62;96621.21;108459;1264;22619;-79
2022/07/14 11:14:13;;;;;;;3.50;1.70;;;;;;;27.56;37.56;96615.89;108455;1264;22641;-79
2022/07/14 11:17:03;;;;;;;1.90;1.60;;;;;;;27.68;37.94;96611.48;108361;1264;90113;-79
2022/07/14 11:19:40;;;;;;;2.40;1.70;;;;;;;27.92;37.97;96612.33;108588;1261;22535;-79
2022/07/14 11:22:19;;;;;;;3.00;1.70;;;;;;;28.22;38.68;96610.42;108599;1264;22543;-79
2022/07/14 11:24:59;;;;;;;2.70;1.70;;;;;;;28.49;37.05;96609.20;108634;1264;22541;-79
2022/07/14 11:27:37;;;;;;;1.70;1.50;;;;;;;28.44;38.14;96606.55;108420;1264;90004;-79
2022/07/14 11:30:29;;;;;;;3.00;1.90;;;;;;;28.68;39.17;96601.33;108591;1264;22543;-79
2022/07/14 11:33:06;;;;;;;2.90;1.60;;;;;;;28.86;37.44;96600.25;108589;1264;22529;-79
2022/07/14 11:38:44;;;;;;;5.40;2.60;;;;;;;28.84;37.57;96591.35;108480;1264;25437;-80
2022/07/14 11:41:38;;;;;;;2.60;2.40;;;;;;;28.59;37.18;96593.02;108772;1264;24221;-79
2022/07/14 11:44:32;;;;;;;2.70;2.00;;;;;;;28.54;37.64;96601.61;108478;1264;22548;-79
2022/07/14 11:47:08;;;;;;;3.50;2.00;;;;;;;28.59;36.92;96596.07;108349;1264;89204;-80
2022/07/14 11:49:57;;;;;;;1.90;1.70;;;;;;;28.61;37.20;96589.66;108581;1264;22524;-80
2022/07/14 11:52:44;;;;;;;3.50;1.70;;;;;;;28.38;37.08;96584.91;108575;1264;23858;-80
2022/07/14 11:55:17;;;;;;;2.50;2.10;;;;;;;28.25;39.13;96584.31;108321;1264;86462;-79
2022/07/14 11:58:03;;;;;;;2.20;1.80;;;;;;;28.50;38.32;96580.11;108723;1264;22534;-79
2022/07/14 12:00:39;;;;;;;1.90;1.70;;;;;;;28.39;37.78;96574.23;108696;1263;22541;-80
2022/07/14 12:03:19;;;;;;;3.50;2.10;;;;;;;28.33;37.81;96580.20;108744;1264;22551;-80
2022/07/14 12:06:04;;;;;;;3.60;1.90;;;;;;;28.49;37.95;96576.45;108544;1264;110321;-80
2022/07/14 12:08:40;;;;;;;5.10;1.90;;;;;;;28.40;37.46;96573.69;108757;1264;24297;-80
2022/07/14 12:11:16;;;;;;;3.10;1.90;;;;;;;28.49;37.86;96572.73;108708;1264;22633;-80
2022/07/14 12:13:55;;;;;;;3.00;2.00;;;;;;;28.59;36.93;96570.90;108791;1264;22535;-80
2022/07/14 12:16:47;;;;;;;2.60;1.90;;;;;;;28.75;37.66;96573.15;108572;1264;132678;-80
2022/07/14 12:19:29;;;;;;;4.50;2.10;;;;;;;28.87;37.77;96575.23;108818;1264;23832;-80
2022/07/14 12:22:12;;;;;;;4.10;1.90;;;;;;;28.88;37.27;96572.18;108823;1264;24209;-80
2022/07/14 12:24:49;;;;;;;3.50;1.70;;;;;;;28.79;36.47;96569.08;108870;1262;25248;-80
2022/07/14 12:27:28;;;;;;;1.80;1.60;;;;;;;28.74;37.55;96565.67;108547;1263;113261;-80
2022/07/14 12:30:11;;;;;;;3.10;1.90;;;;;;;28.58;36.72;96565.20;108815;1262;26037;-79
2022/07/14 12:32:44;;;;;;;4.60;1.80;;;;;;;28.08;37.47;96561.61;108831;1263;22751;-80